Time;durP1;ratioP1;P1;durP2;ratioP2;P2;SDS_P1;SDS_P2;PMS_P1;PMS_P2;Temp;Humidity;BMP_temperature;BMP_pressure;BME280_temperature;BME280_humidity;BME280_pressure;Samples;Min_cycle;Max_cycle;Signal;HPM_P1;HPM_P2
2022/10/19 00:08:05;;;;;;;3.17;2.40;;;;;;;;;;20824467;28;20226;-71
2022/10/19 00:18:08;;;;;;;3.80;2.50;;;;;;;;;;20828850;28;20272;-72
2022/10/19 00:28:09;;;;;;;5.60;2.33;;;;;;;;;;20827308;28;20224;-72
2022/10/19 00:38:11;;;;;;;4.70;2.70;;;;;;;;;;20826517;28;20228;-72
2022/10/19 00:48:18;;;;;;;5.70;3.00;;;;;;;;;;20826930;28;20222;-72
2022/10/19 00:58:20;;;;;;;4.70;2.77;;;;;;;;;;20827983;28;20222;-72
2022/10/19 01:08:22;;;;;;;5.50;3.50;;;16.90;99.90;;;;;;20810443;28;20261;-72
2022/10/19 01:18:57;;;;;;;5.97;3.13;;;16.70;99.90;;;;;;20833211;28;20227;-72
2022/10/19 01:29:06;;;;;;;3.80;2.47;;;;;;;;;;20822082;28;20231;-72
2022/10/19 01:39:16;;;;;;;8.37;3.63;;;;;;;;;;20824705;28;20215;-72
2022/10/19 01:49:37;;;;;;;3.67;2.60;;;;;;;;;;20822541;28;20209;-72
2022/10/19 01:59:39;;;;;;;3.83;2.57;;;;;;;;;;20803536;28;20214;-72
2022/10/19 02:09:40;;;;;;;4.47;2.93;;;;;;;;;;20805114;28;20214;-72
2022/10/19 02:19:42;;;;;;;4.57;2.73;;;16.60;99.90;;;;;;20822430;28;20211;-72
2022/10/19 02:29:47;;;;;;;5.33;3.00;;;;;;;;;;20818405;28;20299;-72
2022/10/19 02:39:49;;;;;;;5.57;2.97;;;;;;;;;;20816857;28;20690;-72
2022/10/19 02:49:51;;;;;;;6.00;3.10;;;;;;;;;;20818471;28;20548;-72
2022/10/19 02:59:53;;;;;;;6.33;3.53;;;;;;;;;;20885129;22;20282;-71
2022/10/19 03:09:55;;;;;;;4.97;3.10;;;;;;;;;;20931169;28;20217;-72
2022/10/19 03:19:57;;;;;;;6.50;3.87;;;;;;;;;;20940133;28;20221;-72
2022/10/19 03:29:58;;;;;;;5.50;3.87;;;;;;;;;;20929743;28;20295;-72
2022/10/19 03:40:00;;;;;;;5.67;3.07;;;;;;;;;;20933419;28;20217;-71
2022/10/19 03:50:04;;;;;;;4.47;3.20;;;;;;;;;;20954579;28;21044;-73
2022/10/19 04:00:06;;;;;;;5.67;3.37;;;;;;;;;;20933953;28;20233;-72
2022/10/19 04:10:13;;;;;;;5.30;3.33;;;;;;;;;;20953206;28;20767;-72
2022/10/19 04:20:16;;;;;;;6.47;3.63;;;;;;;;;;20947054;28;20251;-72
2022/10/19 04:30:17;;;;;;;5.77;3.70;;;;;;;;;;20931447;28;20661;-73
2022/10/19 04:40:19;;;;;;;7.40;3.80;;;;;;;;;;20962347;28;20769;-73
2022/10/19 04:50:21;;;;;;;5.07;3.33;;;;;;;;;;20945627;28;20271;-73
2022/10/19 05:00:30;;;;;;;5.47;3.47;;;;;;;;;;20948745;28;20669;-73
2022/10/19 05:10:32;;;;;;;4.90;3.03;;;;;;;;;;20929109;28;20229;-76
2022/10/19 05:20:34;;;;;;;5.73;3.77;;;;;;;;;;20929423;28;20262;-73
2022/10/19 05:30:37;;;;;;;6.13;3.60;;;;;;;;;;20956758;28;20221;-73
2022/10/19 05:40:44;;;;;;;6.83;3.33;;;;;;;;;;20954115;28;20209;-73
2022/10/19 05:50:53;;;;;;;6.77;3.20;;;;;;;;;;20955295;28;20271;-72
2022/10/19 06:00:56;;;;;;;5.07;3.50;;;;;;;;;;20954035;28;20221;-73
2022/10/19 06:11:12;;;;;;;6.00;3.87;;;;;;;;;;20920249;28;20298;-72
2022/10/19 06:21:16;;;;;;;6.17;3.50;;;;;;;;;;20962822;28;20274;-72
2022/10/19 06:31:18;;;;;;;6.93;4.63;;;;;;;;;;20937845;28;20216;-72
2022/10/19 06:41:20;;;;;;;7.43;4.23;;;;;;;;;;20930435;28;20259;-72
2022/10/19 06:51:24;;;;;;;6.97;3.60;;;15.90;99.90;;;;;;20919060;28;20221;-73
2022/10/19 07:01:26;;;;;;;6.33;3.63;;;;;;;;;;20951667;28;20237;-73
2022/10/19 07:11:29;;;;;;;6.33;4.00;;;;;;;;;;20934367;28;20228;-73
2022/10/19 07:21:31;;;;;;;6.00;3.77;;;;;;;;;;20950843;28;20216;-73
2022/10/19 07:31:33;;;;;;;7.23;4.13;;;;;;;;;;20934202;28;20233;-73
2022/10/19 07:41:35;;;;;;;5.40;3.13;;;;;;;;;;20949242;28;20212;-73
2022/10/19 07:51:37;;;;;;;8.63;4.00;;;15.80;99.90;;;;;;20947714;28;20290;-73
2022/10/19 08:01:40;;;;;;;6.47;3.83;;;;;;;;;;20947433;28;20221;-73
2022/10/19 08:11:46;;;;;;;10.20;4.70;;;;;;;;;;20962803;28;20233;-73
2022/10/19 08:21:49;;;;;;;7.73;4.50;;;15.80;99.90;;;;;;20963044;28;20228;-73
2022/10/19 08:31:51;;;;;;;8.83;5.40;;;;;;;;;;20944350;28;20606;-73
2022/10/19 08:42:12;;;;;;;11.33;4.93;;;;;;;;;;20928573;28;20209;-73
2022/10/19 08:52:31;;;;;;;7.77;4.93;;;15.90;99.90;;;;;;20943247;28;20225;-73
2022/10/19 09:02:56;;;;;;;7.00;4.10;;;;;;;;;;20972895;22;20286;-69
2022/10/19 09:13:14;;;;;;;12.83;7.80;;;;;;;;;;20872652;28;20274;-68
2022/10/19 09:23:39;;;;;;;8.90;5.23;;;;;;;;;;20873921;28;20221;-69
2022/10/19 09:33:45;;;;;;;8.40;5.17;;;15.90;99.90;;;;;;20883018;28;20209;-68
2022/10/19 09:43:54;;;;;;;6.13;2.63;;;15.90;99.90;;;;;;20856161;28;20230;-68
2022/10/19 09:53:58;;;;;;;3.93;2.50;;;;;;;;;;20856065;28;20761;-68
2022/10/19 10:04:06;;;;;;;2.03;1.50;;;;;;;;;;20838847;28;20226;-68
2022/10/19 10:14:27;;;;;;;2.20;1.30;;;;;;;;;;20854968;28;20283;-68
2022/10/19 10:24:31;;;;;;;3.40;1.57;;;;;;;;;;20870097;28;20256;-68
2022/10/19 10:34:37;;;;;;;3.47;2.00;;;16.10;99.90;;;;;;20853892;28;20256;-68
2022/10/19 10:44:48;;;;;;;3.50;2.27;;;16.10;99.90;;;;;;20867861;28;20672;-68
2022/10/19 10:55:01;;;;;;;3.33;2.00;;;;;;;;;;20851750;28;20241;-68
2022/10/19 11:05:31;;;;;;;3.23;1.80;;;16.30;99.90;;;;;;20851860;28;20708;-68
2022/10/19 11:15:37;;;;;;;2.93;2.20;;;;;;;;;;20851315;28;20236;-68
2022/10/19 11:25:50;;;;;;;2.57;1.80;;;16.20;99.90;;;;;;20868331;28;20213;-68
2022/10/19 11:36:07;;;;;;;2.57;1.70;;;16.40;99.90;;;;;;20851492;28;20590;-68
2022/10/19 11:46:09;;;;;;;1.60;1.23;;;;;;;;;;20867606;28;20303;-68
2022/10/19 11:56:29;;;;;;;1.90;1.20;;;16.60;99.90;;;;;;20850228;28;20692;-68
2022/10/19 12:06:31;;;;;;;1.63;1.20;;;;;;;;;;20852638;28;20218;-68
2022/10/19 12:16:43;;;;;;;0.47;0.47;;;16.70;99.90;;;;;;20857546;28;20206;-68
2022/10/19 12:26:45;;;;;;;1.00;0.53;;;;;;;;;;20873105;28;20221;-67
2022/10/19 12:36:56;;;;;;;0.70;0.40;;;;;;;;;;20858826;28;20201;-67
2022/10/19 12:47:16;;;;;;;1.00;0.63;;;17.10;99.90;;;;;;20874988;28;20221;-67
2022/10/19 12:57:20;;;;;;;0.93;0.60;;;;;;;;;;20889526;28;20243;-68
2022/10/19 13:07:24;;;;;;;1.07;0.60;;;;;;;;;;20870812;28;20280;-68
2022/10/19 13:17:36;;;;;;;0.40;0.37;;;;;;;;;;20867820;28;20573;-68
2022/10/19 13:27:38;;;;;;;0.80;0.50;;;;;;;;;;20892896;28;20291;-67
2022/10/19 13:37:40;;;;;;;1.40;0.60;;;;;;;;;;20945903;28;20205;-68
2022/10/19 13:47:46;;;;;;;1.00;0.50;;;;;;;;;;20932166;28;20222;-67
2022/10/19 13:58:12;;;;;;;0.93;0.53;;;17.80;99.90;;;;;;20930804;28;20211;-67
2022/10/19 14:08:17;;;;;;;1.03;0.63;;;;;;;;;;20928162;28;20229;-67
2022/10/19 14:18:24;;;;;;;0.90;0.60;;;;;;;;;;20945182;28;20624;-67
2022/10/19 14:28:27;;;;;;;0.83;0.50;;;;;;;;;;20960112;28;20286;-68
2022/10/19 14:38:33;;;;;;;0.63;0.47;;;;;;;;;;20843812;28;20218;-68
2022/10/19 14:48:36;;;;;;;1.03;0.50;;;;;;;;;;20860455;28;20217;-68
2022/10/19 14:58:52;;;;;;;0.47;0.40;;;17.30;99.90;;;;;;20834950;28;20338;-68
2022/10/19 15:08:59;;;;;;;1.20;0.70;;;;;;;;;;20839334;28;20221;-69
2022/10/19 15:19:05;;;;;;;2.60;1.60;;;;;;;;;;20870962;28;20209;-67
2022/10/19 15:29:09;;;;;;;3.30;2.10;;;;;;;;;;20829590;28;20256;-68
2022/10/19 15:39:21;;;;;;;3.20;2.10;;;;;;;;;;20870845;23;20296;-83
2022/10/19 15:49:43;;;;;;;2.93;1.87;;;;;;;;;;20939706;28;20245;-82
2022/10/19 15:59:47;;;;;;;3.03;2.07;;;;;;;;;;20831385;28;20782;-83
2022/10/19 16:09:50;;;;;;;3.90;2.50;;;;;;;;;;20898186;28;20257;-84
2022/10/19 16:19:58;;;;;;;3.20;2.00;;;;;;;;;;20914166;28;20245;-83
2022/10/19 16:30:08;;;;;;;3.47;1.90;;;;;;;;;;20893797;28;20287;-82
2022/10/19 16:40:46;;;;;;;5.10;3.10;;;;;;;;;;20871830;28;20240;-82
2022/10/19 16:51:29;;;;;;;4.43;3.57;;;;;;;;;;20949463;28;20289;-82
2022/10/19 17:01:36;;;;;;;2.60;1.30;;;;;;;;;;20966513;28;20583;-83
2022/10/19 17:11:46;;;;;;;4.23;2.67;;;;;;;;;;20939033;28;20233;-82
2022/10/19 17:21:50;;;;;;;4.67;1.87;;;;;;;;;;20897535;28;20264;-82
2022/10/19 17:31:55;;;;;;;2.13;1.40;;;;;;;;;;20843274;28;20226;-82
2022/10/19 17:42:08;;;;;;;2.23;1.53;;;;;;;;;;20785361;28;20281;-82
2022/10/19 17:52:25;;;;;;;5.00;1.70;;;;;;;;;;20774627;28;20238;-81
2022/10/19 18:02:30;;;;;;;2.23;1.33;;;;;;;;;;20805130;28;20276;-81
2022/10/19 18:12:37;;;;;;;2.60;1.40;;;;;;;;;;20789616;28;20222;-82
2022/10/19 18:22:50;;;;;;;2.43;1.33;;;;;;;;;;20815982;28;20244;-82
2022/10/19 18:32:54;;;;;;;2.53;1.40;;;;;;;;;;20911835;28;20221;-80
2022/10/19 18:43:03;;;;;;;1.87;1.30;;;;;;;;;;20952232;28;20229;-82
2022/10/19 18:53:17;;;;;;;2.30;1.13;;;;;;;;;;20938910;28;20225;-82
2022/10/19 19:03:48;;;;;;;2.40;1.40;;;;;;;;;;20930484;28;20189;-81
2022/10/19 19:14:00;;;;;;;1.70;1.07;;;;;;;;;;20925786;28;20906;-81
2022/10/19 19:24:06;;;;;;;2.60;1.37;;;;;;;;;;20835494;28;20636;-80
2022/10/19 19:34:08;;;;;;;2.50;1.43;;;;;;;;;;20956821;28;20274;-80
2022/10/19 19:44:10;;;;;;;1.80;1.13;;;;;;;;;;20965588;28;20221;-80
2022/10/19 19:54:12;;;;;;;1.93;1.20;;;;;;;;;;20898687;28;20213;-84
2022/10/19 20:04:14;;;;;;;2.27;1.70;;;;;;;;;;20882848;28;20275;-83
2022/10/19 20:14:15;;;;;;;2.77;1.53;;;;;;;;;;20890002;28;20707;-83
2022/10/19 20:24:17;;;;;;;2.17;1.30;;;;;;;;;;20877826;28;20291;-84
2022/10/19 20:34:19;;;;;;;2.33;1.40;;;;;;;;;;20879609;28;20218;-83
2022/10/19 20:44:21;;;;;;;2.30;1.63;;;;;;;;;;20868733;28;20248;-84
2022/10/19 20:54:23;;;;;;;3.50;1.80;;;;;;;;;;20865784;28;20613;-85
2022/10/19 21:04:24;;;;;;;3.03;1.77;;;;;;;;;;20865194;28;20218;-83
2022/10/19 21:14:27;;;;;;;3.53;1.97;;;15.30;99.90;;;;;;20897719;28;20260;-85
2022/10/19 21:24:34;;;;;;;3.67;1.70;;;15.40;99.90;;;;;;20881470;28;20239;-83
2022/10/19 21:34:36;;;;;;;2.20;1.43;;;;;;;;;;20867896;28;20210;-83
2022/10/19 21:44:38;;;;;;;2.57;1.57;;;;;;;;;;20944039;28;20233;-84
2022/10/19 21:54:39;;;;;;;2.60;1.60;;;;;;;;;;20898374;28;20263;-85
2022/10/19 22:04:41;;;;;;;2.97;1.70;;;;;;;;;;20942700;28;20228;-84
2022/10/19 22:14:44;;;;;;;3.23;1.47;;;;;;;;;;20948874;28;20217;-84
2022/10/19 22:24:45;;;;;;;3.57;1.97;;;;;;;;;;20958291;28;20283;-84
2022/10/19 22:34:47;;;;;;;2.50;1.80;;;;;;;;;;20957397;28;20206;-84
2022/10/19 22:44:49;;;;;;;3.30;2.03;;;;;;;;;;20956099;28;20562;-84
2022/10/19 22:54:50;;;;;;;2.77;1.60;;;;;;;;;;20909967;28;20225;-84
2022/10/19 23:04:53;;;;;;;2.87;1.97;;;;;;;;;;20972072;28;20233;-84
2022/10/19 23:14:54;;;;;;;3.20;2.10;;;;;;;;;;20933928;28;20231;-83
2022/10/19 23:24:56;;;;;;;2.93;1.83;;;;;;;;;;20964334;28;20274;-82
2022/10/19 23:34:57;;;;;;;3.93;2.10;;;;;;;;;;20937957;28;20251;-82
2022/10/19 23:45:00;;;;;;;4.37;2.47;;;;;;;;;;20941504;28;20229;-84
2022/10/19 23:55:01;;;;;;;2.97;2.17;;;;;;;;;;20857567;28;20268;-83
